DAL2460 KPBI-KLGA
Flight info
| Callsign | DAL2460 |
|---|---|
| Flight time | 2h 20m |
| Altitude | 35000 |
| Route | N0452F350 SLIDZ23 LENDS DCT GRUBR Y299 SEELO DCT GARIC Q107 HURTS PROUD2 |
| Aircraft | A321/M-SDE3FGHIRWY/LB1 |
Departure
| Time | 2026-04-21 02:26 |
|---|---|
| Airport | Palm Beach International Airport (KPBI) |
Arrival
| Time | 2026-04-21 04:46 |
|---|---|
| Airport | LaGuardia Airport (KLGA) |
| Time | Latitude | Longitude | Altitude | Speed | Heading |
|---|---|---|---|---|---|
| 2026-04-21 01:36 | 26.68661 | -80.09330 | 34 ft | 0 kts | 360° |
| 2026-04-21 02:10 | 26.68652 | -80.09330 | 34 ft | 2 kts | 360° |
| 2026-04-21 02:10 | 26.68634 | -80.09329 | 34 ft | 3 kts | 354° |
| 2026-04-21 02:10 | 26.68615 | -80.09324 | 34 ft | 3 kts | 337° |
| 2026-04-21 02:11 | 26.68597 | -80.09313 | 34 ft | 3 kts | 321° |
| 2026-04-21 02:11 | 26.68583 | -80.09296 | 34 ft | 3 kts | 305° |
| 2026-04-21 02:11 | 26.68573 | -80.09276 | 34 ft | 3 kts | 291° |
| 2026-04-21 02:11 | 26.68568 | -80.09253 | 34 ft | 3 kts | 278° |
| 2026-04-21 02:12 | 26.68567 | -80.09232 | 34 ft | 2 kts | 271° |
| 2026-04-21 02:12 | 26.68567 | -80.09225 | 34 ft | 0 kts | 271° |
| 2026-04-21 02:15 | 26.68567 | -80.09231 | 34 ft | 2 kts | 272° |
| 2026-04-21 02:15 | 26.68563 | -80.09253 | 34 ft | 4 kts | 253° |
| 2026-04-21 02:15 | 26.68552 | -80.09291 | 34 ft | 6 kts | 246° |
| 2026-04-21 02:16 | 26.68530 | -80.09343 | 34 ft | 9 kts | 246° |
| 2026-04-21 02:16 | 26.68492 | -80.09402 | 34 ft | 11 kts | 226° |
| 2026-04-21 02:16 | 26.68487 | -80.09443 | 34 ft | 6 kts | 300° |
| 2026-04-21 02:16 | 26.68516 | -80.09485 | 34 ft | 8 kts | 314° |
| 2026-04-21 02:17 | 26.68562 | -80.09537 | 34 ft | 10 kts | 314° |
| 2026-04-21 02:17 | 26.68618 | -80.09600 | 34 ft | 12 kts | 316° |
| 2026-04-21 02:17 | 26.68648 | -80.09656 | 34 ft | 8 kts | 268° |
| 2026-04-21 02:17 | 26.68640 | -80.09717 | 34 ft | 9 kts | 264° |
| 2026-04-21 02:18 | 26.68630 | -80.09795 | 34 ft | 11 kts | 260° |
| 2026-04-21 02:18 | 26.68615 | -80.09891 | 34 ft | 14 kts | 261° |
| 2026-04-21 02:18 | 26.68600 | -80.09999 | 34 ft | 14 kts | 260° |
| 2026-04-21 02:18 | 26.68584 | -80.10104 | 34 ft | 13 kts | 260° |
| 2026-04-21 02:19 | 26.68568 | -80.10205 | 34 ft | 13 kts | 260° |
| 2026-04-21 02:19 | 26.68553 | -80.10304 | 34 ft | 13 kts | 261° |
| 2026-04-21 02:19 | 26.68539 | -80.10401 | 34 ft | 13 kts | 261° |
| 2026-04-21 02:19 | 26.68535 | -80.10501 | 34 ft | 13 kts | 271° |
| 2026-04-21 02:20 | 26.68539 | -80.10605 | 34 ft | 14 kts | 273° |
| 2026-04-21 02:20 | 26.68541 | -80.10716 | 34 ft | 15 kts | 270° |
| 2026-04-21 02:20 | 26.68536 | -80.10782 | 34 ft | 6 kts | 234° |
| 2026-04-21 02:20 | 26.68510 | -80.10797 | 34 ft | 7 kts | 189° |
| 2026-04-21 02:21 | 26.68461 | -80.10801 | 34 ft | 8 kts | 183° |
| 2026-04-21 02:21 | 26.68402 | -80.10804 | 34 ft | 5 kts | 181° |
| 2026-04-21 02:21 | 26.68395 | -80.10804 | 34 ft | 0 kts | 181° |
| 2026-04-21 02:23 | 26.68394 | -80.10804 | 34 ft | 0 kts | 181° |
| 2026-04-21 02:24 | 26.68384 | -80.10804 | 34 ft | 4 kts | 181° |
| 2026-04-21 02:24 | 26.68351 | -80.10806 | 34 ft | 5 kts | 183° |
| 2026-04-21 02:24 | 26.68322 | -80.10795 | 34 ft | 5 kts | 123° |
| 2026-04-21 02:24 | 26.68319 | -80.10777 | 34 ft | 0 kts | 95° |
| 2026-04-21 02:25 | 26.68319 | -80.10776 | 34 ft | 3 kts | 95° |
| 2026-04-21 02:26 | 26.68306 | -80.10463 | 35 ft | 81 kts | 90° |
| 2026-04-21 02:26 | 26.68266 | -80.09562 | 35 ft | 149 kts | 92° |
| 2026-04-21 02:26 | 26.68182 | -80.08249 | 372 ft | 172 kts | 92° |
| 2026-04-21 02:26 | 26.68060 | -80.06962 | 1313 ft | 166 kts | 91° |
| 2026-04-21 02:27 | 26.68049 | -80.05641 | 1701 ft | 177 kts | 76° |
| 2026-04-21 02:27 | 26.68572 | -80.04337 | 1932 ft | 195 kts | 53° |
| 2026-04-21 02:27 | 26.69357 | -80.02968 | 2223 ft | 220 kts | 59° |
| 2026-04-21 02:27 | 26.70058 | -80.01365 | 2738 ft | 237 kts | 62° |
| 2026-04-21 02:28 | 26.70773 | -79.99688 | 3424 ft | 245 kts | 62° |
| 2026-04-21 02:28 | 26.71560 | -79.97977 | 4192 ft | 250 kts | 58° |
| 2026-04-21 02:28 | 26.72587 | -79.96399 | 4974 ft | 253 kts | 49° |
| 2026-04-21 02:28 | 26.73765 | -79.94911 | 5715 ft | 258 kts | 46° |
| 2026-04-21 02:29 | 26.74991 | -79.93408 | 6436 ft | 264 kts | 46° |
| 2026-04-21 02:29 | 26.76213 | -79.91857 | 7167 ft | 269 kts | 47° |
| 2026-04-21 02:29 | 26.77439 | -79.90250 | 7880 ft | 274 kts | 47° |
| 2026-04-21 02:29 | 26.78687 | -79.88611 | 8573 ft | 279 kts | 47° |
| 2026-04-21 02:30 | 26.79965 | -79.86949 | 9245 ft | 285 kts | 47° |
| 2026-04-21 02:30 | 26.81277 | -79.85255 | 9918 ft | 290 kts | 47° |
| 2026-04-21 02:30 | 26.82611 | -79.83530 | 10494 ft | 299 kts | 47° |
| 2026-04-21 02:30 | 26.84012 | -79.81717 | 10804 ft | 317 kts | 47° |
| 2026-04-21 02:31 | 26.85498 | -79.79794 | 11041 ft | 336 kts | 47° |
| 2026-04-21 02:31 | 26.87064 | -79.77761 | 11357 ft | 351 kts | 47° |
| 2026-04-21 02:31 | 26.88673 | -79.75667 | 11896 ft | 357 kts | 47° |
| 2026-04-21 02:31 | 26.90297 | -79.73550 | 12565 ft | 359 kts | 47° |
| 2026-04-21 02:32 | 26.91936 | -79.71420 | 13192 ft | 362 kts | 46° |
| 2026-04-21 02:32 | 26.93684 | -79.69419 | 13758 ft | 365 kts | 41° |
| 2026-04-21 02:32 | 26.95541 | -79.67447 | 14333 ft | 369 kts | 40° |
| 2026-04-21 02:32 | 26.97435 | -79.65484 | 14896 ft | 373 kts | 39° |
| 2026-04-21 02:33 | 26.99351 | -79.63503 | 15432 ft | 377 kts | 40° |
| 2026-04-21 02:33 | 27.01278 | -79.61481 | 15953 ft | 382 kts | 40° |
| 2026-04-21 02:33 | 27.03217 | -79.59424 | 16458 ft | 386 kts | 40° |
| 2026-04-21 02:33 | 27.05174 | -79.57342 | 16948 ft | 391 kts | 39° |
| 2026-04-21 02:34 | 27.07228 | -79.55330 | 17401 ft | 391 kts | 30° |
| 2026-04-21 02:34 | 27.09686 | -79.54120 | 17858 ft | 385 kts | 10° |
| 2026-04-21 02:34 | 27.12307 | -79.53469 | 18331 ft | 387 kts | 6° |
| 2026-04-21 02:34 | 27.14964 | -79.52875 | 18782 ft | 392 kts | 7° |
| 2026-04-21 02:35 | 27.17639 | -79.52178 | 19228 ft | 397 kts | 9° |
| 2026-04-21 02:35 | 27.20323 | -79.51345 | 19682 ft | 402 kts | 11° |
| 2026-04-21 02:35 | 27.23013 | -79.50442 | 20134 ft | 405 kts | 11° |
| 2026-04-21 02:35 | 27.25695 | -79.49541 | 20571 ft | 408 kts | 11° |
| 2026-04-21 02:36 | 27.28431 | -79.48658 | 21003 ft | 411 kts | 10° |
| 2026-04-21 02:36 | 27.31203 | -79.47798 | 21427 ft | 414 kts | 9° |
| 2026-04-21 02:36 | 27.33990 | -79.46943 | 21854 ft | 417 kts | 9° |
| 2026-04-21 02:36 | 27.36802 | -79.46072 | 22261 ft | 420 kts | 9° |
| 2026-04-21 02:37 | 27.39623 | -79.45185 | 22652 ft | 423 kts | 10° |
| 2026-04-21 02:37 | 27.42474 | -79.44279 | 23034 ft | 426 kts | 10° |
| 2026-04-21 02:37 | 27.45339 | -79.43368 | 23406 ft | 429 kts | 9° |
| 2026-04-21 02:37 | 27.48223 | -79.42455 | 23770 ft | 432 kts | 9° |
| 2026-04-21 02:38 | 27.51133 | -79.41537 | 24124 ft | 435 kts | 9° |
| 2026-04-21 02:38 | 27.54064 | -79.40615 | 24468 ft | 438 kts | 9° |
| 2026-04-21 02:38 | 27.57006 | -79.39687 | 24807 ft | 441 kts | 9° |
| 2026-04-21 02:38 | 27.59977 | -79.38748 | 25153 ft | 444 kts | 9° |
| 2026-04-21 02:39 | 27.62965 | -79.37802 | 25494 ft | 446 kts | 9° |
| 2026-04-21 02:39 | 27.65923 | -79.36862 | 25814 ft | 449 kts | 9° |
| 2026-04-21 02:39 | 27.68946 | -79.35904 | 26140 ft | 451 kts | 9° |
| 2026-04-21 02:39 | 27.71968 | -79.34948 | 26462 ft | 453 kts | 8° |
| 2026-04-21 02:40 | 27.75023 | -79.33980 | 26773 ft | 456 kts | 8° |
| 2026-04-21 02:40 | 27.78096 | -79.33005 | 27077 ft | 458 kts | 8° |
| 2026-04-21 02:40 | 27.81174 | -79.32026 | 27380 ft | 461 kts | 8° |
| 2026-04-21 02:40 | 27.84231 | -79.31053 | 27675 ft | 463 kts | 8° |
| 2026-04-21 02:41 | 27.87342 | -79.30062 | 27968 ft | 465 kts | 8° |
| 2026-04-21 02:41 | 27.90463 | -79.29068 | 28252 ft | 467 kts | 8° |
| 2026-04-21 02:41 | 27.93606 | -79.28066 | 28565 ft | 470 kts | 8° |
| 2026-04-21 02:41 | 27.96753 | -79.27062 | 29025 ft | 471 kts | 8° |
| 2026-04-21 02:42 | 27.99902 | -79.26053 | 29353 ft | 467 kts | 8° |
| 2026-04-21 02:42 | 28.03052 | -79.25049 | 29504 ft | 475 kts | 8° |
| 2026-04-21 02:42 | 28.06249 | -79.24033 | 29916 ft | 477 kts | 8° |
| 2026-04-21 02:42 | 28.09419 | -79.23014 | 30283 ft | 471 kts | 8° |
| 2026-04-21 02:43 | 28.12605 | -79.21993 | 30432 ft | 479 kts | 8° |
| 2026-04-21 02:43 | 28.15806 | -79.20967 | 30843 ft | 475 kts | 7° |
| 2026-04-21 02:43 | 28.18916 | -79.19963 | 31391 ft | 466 kts | 7° |
| 2026-04-21 02:43 | 28.22037 | -79.18960 | 31656 ft | 469 kts | 7° |
| 2026-04-21 02:44 | 28.25200 | -79.17958 | 31936 ft | 472 kts | 7° |
| 2026-04-21 02:44 | 28.28334 | -79.16955 | 32402 ft | 465 kts | 6° |
| 2026-04-21 02:44 | 28.31458 | -79.15948 | 32629 ft | 468 kts | 6° |
| 2026-04-21 02:44 | 28.34605 | -79.14938 | 33004 ft | 468 kts | 6° |
| 2026-04-21 02:45 | 28.37708 | -79.13935 | 33406 ft | 462 kts | 6° |
| 2026-04-21 02:45 | 28.40815 | -79.12936 | 33601 ft | 465 kts | 6° |
| 2026-04-21 02:45 | 28.43931 | -79.11937 | 34037 ft | 462 kts | 6° |
| 2026-04-21 02:45 | 28.46975 | -79.10954 | 34354 ft | 457 kts | 6° |
| 2026-04-21 02:46 | 28.50061 | -79.09961 | 34426 ft | 465 kts | 6° |
| 2026-04-21 02:46 | 28.53183 | -79.08960 | 34735 ft | 466 kts | 6° |
| 2026-04-21 02:46 | 28.56299 | -79.07954 | 35190 ft | 462 kts | 6° |
| 2026-04-21 02:47 | 28.62451 | -79.05957 | 35241 ft | 460 kts | 6° |
| 2026-04-21 02:47 | 28.68610 | -79.03972 | 35240 ft | 460 kts | 6° |
| 2026-04-21 02:48 | 28.74772 | -79.01976 | 35240 ft | 460 kts | 6° |
| 2026-04-21 02:48 | 28.80926 | -78.99980 | 35240 ft | 460 kts | 6° |
| 2026-04-21 02:49 | 28.87048 | -78.97991 | 35236 ft | 460 kts | 6° |
| 2026-04-21 02:49 | 28.93213 | -78.95990 | 35214 ft | 460 kts | 6° |
| 2026-04-21 02:50 | 28.99375 | -78.93985 | 35185 ft | 459 kts | 6° |
| 2026-04-21 02:50 | 29.05490 | -78.91986 | 35184 ft | 454 kts | 6° |
| 2026-04-21 02:51 | 29.11555 | -78.90017 | 35187 ft | 461 kts | 6° |
| 2026-04-21 02:51 | 29.17777 | -78.87993 | 35242 ft | 467 kts | 6° |
| 2026-04-21 02:52 | 29.23997 | -78.85937 | 35278 ft | 458 kts | 6° |
| 2026-04-21 02:52 | 29.30127 | -78.83931 | 35305 ft | 458 kts | 5° |
| 2026-04-21 02:53 | 29.36263 | -78.81935 | 35312 ft | 458 kts | 5° |
| 2026-04-21 02:53 | 29.42399 | -78.79914 | 35315 ft | 459 kts | 6° |
| 2026-04-21 02:54 | 29.48533 | -78.77894 | 35310 ft | 458 kts | 5° |
| 2026-04-21 02:54 | 29.54653 | -78.75884 | 35270 ft | 458 kts | 5° |
| 2026-04-21 02:55 | 29.60783 | -78.73865 | 35264 ft | 457 kts | 6° |
| 2026-04-21 02:55 | 29.66854 | -78.71860 | 35266 ft | 455 kts | 6° |
| 2026-04-21 02:56 | 29.72953 | -78.69847 | 35276 ft | 458 kts | 6° |
| 2026-04-21 02:56 | 29.82194 | -78.66790 | 35360 ft | 459 kts | 6° |
| 2026-04-21 02:57 | 29.88302 | -78.64757 | 35352 ft | 453 kts | 6° |
| 2026-04-21 02:57 | 29.94277 | -78.62779 | 35333 ft | 449 kts | 5° |
| 2026-04-21 02:58 | 30.00329 | -78.60779 | 35302 ft | 452 kts | 6° |
| 2026-04-21 02:58 | 30.06330 | -78.58771 | 35311 ft | 447 kts | 6° |
| 2026-04-21 02:59 | 30.12351 | -78.56774 | 35309 ft | 452 kts | 5° |
| 2026-04-21 02:59 | 30.18445 | -78.55335 | 35348 ft | 440 kts | 357° |
| 2026-04-21 03:00 | 30.24437 | -78.54521 | 35398 ft | 433 kts | 355° |
| 2026-04-21 03:00 | 30.30412 | -78.53721 | 35359 ft | 430 kts | 356° |
| 2026-04-21 03:01 | 30.36406 | -78.52845 | 35326 ft | 437 kts | 356° |
| 2026-04-21 03:01 | 30.42447 | -78.51963 | 35341 ft | 436 kts | 356° |
| 2026-04-21 03:02 | 30.48405 | -78.51035 | 35353 ft | 435 kts | 357° |
| 2026-04-21 03:02 | 30.54420 | -78.50023 | 35320 ft | 437 kts | 358° |
| 2026-04-21 03:03 | 30.60503 | -78.49043 | 35288 ft | 444 kts | 358° |
| 2026-04-21 03:03 | 30.66666 | -78.48046 | 35269 ft | 445 kts | 358° |
| 2026-04-21 03:04 | 30.72736 | -78.47044 | 35293 ft | 436 kts | 358° |
| 2026-04-21 03:04 | 30.78707 | -78.46082 | 35257 ft | 438 kts | 357° |
| 2026-04-21 03:05 | 30.84819 | -78.45099 | 35221 ft | 446 kts | 358° |
| 2026-04-21 03:05 | 30.90992 | -78.44086 | 35246 ft | 449 kts | 358° |
| 2026-04-21 03:06 | 30.97161 | -78.43068 | 35299 ft | 445 kts | 358° |
| 2026-04-21 03:06 | 31.03260 | -78.42071 | 35299 ft | 441 kts | 358° |
| 2026-04-21 03:07 | 31.09348 | -78.41085 | 35269 ft | 448 kts | 358° |
| 2026-04-21 03:07 | 31.15605 | -78.40067 | 35248 ft | 455 kts | 359° |
| 2026-04-21 03:08 | 31.21859 | -78.39017 | 35242 ft | 452 kts | 359° |
| 2026-04-21 03:08 | 31.28128 | -78.37996 | 35239 ft | 454 kts | 359° |
| 2026-04-21 03:09 | 31.34374 | -78.36969 | 35238 ft | 452 kts | 359° |
| 2026-04-21 03:09 | 31.39607 | -78.36111 | 35261 ft | 462 kts | 359° |
| 2026-04-21 03:10 | 31.47030 | -78.34882 | 35273 ft | 462 kts | 359° |
| 2026-04-21 03:10 | 31.52335 | -78.33995 | 35279 ft | 456 kts | 359° |
| 2026-04-21 03:11 | 31.58538 | -78.32971 | 35270 ft | 449 kts | 358° |
| 2026-04-21 03:11 | 31.64703 | -78.31958 | 35280 ft | 445 kts | 358° |
| 2026-04-21 03:12 | 31.67728 | -78.31445 | 35287 ft | 432 kts | 358° |
| 2026-04-21 03:12 | 31.70666 | -78.30943 | 35299 ft | 421 kts | 358° |
| 2026-04-21 03:12 | 31.76479 | -78.29997 | 35321 ft | 422 kts | 357° |
| 2026-04-21 03:13 | 31.82288 | -78.29044 | 35325 ft | 422 kts | 358° |
| 2026-04-21 03:13 | 31.88102 | -78.28065 | 35320 ft | 420 kts | 358° |
| 2026-04-21 03:14 | 31.93870 | -78.27099 | 35274 ft | 416 kts | 357° |
| 2026-04-21 03:14 | 31.99615 | -78.26153 | 35272 ft | 424 kts | 357° |
| 2026-04-21 03:15 | 32.05496 | -78.25230 | 35303 ft | 426 kts | 356° |
| 2026-04-21 03:15 | 32.11365 | -78.24368 | 35357 ft | 421 kts | 356° |
| 2026-04-21 03:16 | 32.17156 | -78.23526 | 35363 ft | 416 kts | 356° |
| 2026-04-21 03:16 | 32.22858 | -78.22698 | 35332 ft | 417 kts | 356° |
| 2026-04-21 03:17 | 32.28677 | -78.21855 | 35302 ft | 423 kts | 356° |
| 2026-04-21 03:17 | 32.34546 | -78.20987 | 35346 ft | 423 kts | 356° |
| 2026-04-21 03:18 | 32.40360 | -78.20131 | 35363 ft | 421 kts | 357° |
| 2026-04-21 03:18 | 32.46190 | -78.19280 | 35360 ft | 420 kts | 357° |
| 2026-04-21 03:19 | 32.51928 | -78.18424 | 35345 ft | 412 kts | 357° |
| 2026-04-21 03:19 | 32.57628 | -78.17598 | 35337 ft | 419 kts | 357° |
| 2026-04-21 03:20 | 32.63431 | -78.16745 | 35320 ft | 417 kts | 357° |
| 2026-04-21 03:20 | 32.69196 | -78.15885 | 35318 ft | 419 kts | 357° |
| 2026-04-21 03:21 | 32.74986 | -78.15034 | 35324 ft | 421 kts | 357° |
| 2026-04-21 03:21 | 32.80767 | -78.14176 | 35320 ft | 419 kts | 357° |
| 2026-04-21 03:22 | 32.86646 | -78.13313 | 35344 ft | 429 kts | 358° |
| 2026-04-21 03:22 | 32.92543 | -78.12428 | 35351 ft | 424 kts | 358° |
| 2026-04-21 03:23 | 32.98358 | -78.11555 | 35343 ft | 418 kts | 358° |
| 2026-04-21 03:23 | 33.04080 | -78.10712 | 35307 ft | 413 kts | 358° |
| 2026-04-21 03:24 | 33.09866 | -78.09859 | 35304 ft | 420 kts | 358° |
| 2026-04-21 03:24 | 33.15674 | -78.08986 | 35301 ft | 420 kts | 358° |
| 2026-04-21 03:25 | 33.21454 | -78.08120 | 35301 ft | 420 kts | 358° |
| 2026-04-21 03:25 | 33.27253 | -78.07254 | 35300 ft | 420 kts | 358° |
| 2026-04-21 03:26 | 33.33074 | -78.06383 | 35304 ft | 421 kts | 358° |
| 2026-04-21 03:26 | 33.38876 | -78.05511 | 35334 ft | 419 kts | 358° |
| 2026-04-21 03:27 | 33.44653 | -78.04643 | 35300 ft | 420 kts | 358° |
| 2026-04-21 03:27 | 33.50474 | -78.03777 | 35278 ft | 426 kts | 358° |
| 2026-04-21 03:28 | 33.56367 | -78.02880 | 35327 ft | 425 kts | 358° |
| 2026-04-21 03:28 | 33.62199 | -78.01995 | 35332 ft | 420 kts | 358° |
| 2026-04-21 03:29 | 33.67963 | -78.01131 | 35311 ft | 417 kts | 358° |
| 2026-04-21 03:29 | 33.73782 | -78.00261 | 35274 ft | 424 kts | 358° |
| 2026-04-21 03:30 | 33.79607 | -77.99373 | 35293 ft | 425 kts | 358° |
| 2026-04-21 03:30 | 33.85494 | -77.98476 | 35337 ft | 427 kts | 358° |
| 2026-04-21 03:31 | 33.91405 | -77.97574 | 35336 ft | 424 kts | 358° |
| 2026-04-21 03:31 | 33.97206 | -77.96650 | 35328 ft | 416 kts | 358° |
| 2026-04-21 03:32 | 34.02918 | -77.95758 | 35314 ft | 417 kts | 358° |
| 2026-04-21 03:32 | 34.08718 | -77.94869 | 35302 ft | 422 kts | 359° |
| 2026-04-21 03:33 | 34.14542 | -77.93940 | 35301 ft | 421 kts | 358° |
| 2026-04-21 03:33 | 34.20368 | -77.93026 | 35300 ft | 422 kts | 358° |
| 2026-04-21 03:34 | 34.26152 | -77.92118 | 35299 ft | 421 kts | 358° |
| 2026-04-21 03:34 | 34.31945 | -77.91204 | 35271 ft | 419 kts | 358° |
| 2026-04-21 03:35 | 34.37692 | -77.90294 | 35281 ft | 416 kts | 358° |
| 2026-04-21 03:35 | 34.43510 | -77.89388 | 35279 ft | 425 kts | 359° |
| 2026-04-21 03:36 | 34.49387 | -77.88448 | 35308 ft | 425 kts | 359° |
| 2026-04-21 03:36 | 34.55228 | -77.87514 | 35362 ft | 420 kts | 359° |
| 2026-04-21 03:37 | 34.60992 | -77.86606 | 35339 ft | 416 kts | 359° |
| 2026-04-21 03:37 | 34.66753 | -77.85702 | 35307 ft | 424 kts | 359° |
| 2026-04-21 03:38 | 34.72619 | -77.84761 | 35310 ft | 426 kts | 359° |
| 2026-04-21 03:38 | 34.78521 | -77.83820 | 35360 ft | 428 kts | 359° |
| 2026-04-21 03:39 | 34.84368 | -77.82883 | 35361 ft | 419 kts | 359° |
| 2026-04-21 03:39 | 34.90087 | -77.81438 | 35345 ft | 420 kts | 6° |
| 2026-04-21 03:40 | 34.95790 | -77.79477 | 35342 ft | 432 kts | 7° |
| 2026-04-21 03:40 | 35.01490 | -77.77500 | 35328 ft | 425 kts | 7° |
| 2026-04-21 03:41 | 35.07248 | -77.75577 | 35327 ft | 427 kts | 6° |
| 2026-04-21 03:41 | 35.12971 | -77.73638 | 35331 ft | 429 kts | 7° |
| 2026-04-21 03:42 | 35.18724 | -77.71679 | 35323 ft | 429 kts | 7° |
| 2026-04-21 03:42 | 35.24472 | -77.69726 | 35335 ft | 427 kts | 7° |
| 2026-04-21 03:43 | 35.30169 | -77.67781 | 35289 ft | 422 kts | 7° |
| 2026-04-21 03:43 | 35.35827 | -77.65862 | 35282 ft | 429 kts | 7° |
| 2026-04-21 03:44 | 35.41615 | -77.63888 | 35295 ft | 434 kts | 7° |
| 2026-04-21 03:44 | 35.47404 | -77.61893 | 35347 ft | 429 kts | 7° |
| 2026-04-21 03:45 | 35.53137 | -77.59929 | 35373 ft | 424 kts | 7° |
| 2026-04-21 03:45 | 35.58833 | -77.57984 | 35342 ft | 430 kts | 7° |
| 2026-04-21 03:46 | 35.64634 | -77.55994 | 35324 ft | 433 kts | 7° |
| 2026-04-21 03:46 | 35.70396 | -77.54000 | 35376 ft | 427 kts | 7° |
| 2026-04-21 03:47 | 35.76075 | -77.52049 | 35370 ft | 421 kts | 6° |
| 2026-04-21 03:47 | 35.81696 | -77.50239 | 35353 ft | 419 kts | 6° |
| 2026-04-21 03:48 | 35.87425 | -77.48421 | 35370 ft | 429 kts | 6° |
| 2026-04-21 03:48 | 35.93175 | -77.46517 | 35374 ft | 424 kts | 7° |
| 2026-04-21 03:49 | 35.98905 | -77.44635 | 35383 ft | 426 kts | 6° |
| 2026-04-21 03:49 | 36.04581 | -77.42781 | 35393 ft | 427 kts | 6° |
| 2026-04-21 03:50 | 36.10402 | -77.40883 | 35442 ft | 433 kts | 7° |
| 2026-04-21 03:50 | 36.16134 | -77.38984 | 35423 ft | 426 kts | 6° |
| 2026-04-21 03:51 | 36.21885 | -77.37103 | 35418 ft | 428 kts | 6° |
| 2026-04-21 03:51 | 36.27637 | -77.35208 | 35414 ft | 425 kts | 7° |
| 2026-04-21 03:52 | 36.33298 | -77.33335 | 35421 ft | 426 kts | 6° |
| 2026-04-21 03:52 | 36.39108 | -77.31426 | 35453 ft | 434 kts | 7° |
| 2026-04-21 03:53 | 36.44902 | -77.29497 | 35454 ft | 427 kts | 7° |
| 2026-04-21 03:53 | 36.50591 | -77.27606 | 35452 ft | 420 kts | 6° |
| 2026-04-21 03:54 | 36.56255 | -77.25738 | 35439 ft | 427 kts | 6° |
| 2026-04-21 03:54 | 36.61953 | -77.23838 | 35420 ft | 424 kts | 7° |
| 2026-04-21 03:55 | 36.67667 | -77.21937 | 35420 ft | 426 kts | 6° |
| 2026-04-21 03:55 | 36.73365 | -77.20034 | 35419 ft | 423 kts | 6° |
| 2026-04-21 03:56 | 36.79072 | -77.18130 | 35404 ft | 420 kts | 6° |
| 2026-04-21 03:56 | 36.84683 | -77.16246 | 35399 ft | 421 kts | 6° |
| 2026-04-21 03:57 | 36.90351 | -77.14364 | 35406 ft | 423 kts | 6° |
| 2026-04-21 03:57 | 36.96060 | -77.12441 | 35413 ft | 425 kts | 6° |
| 2026-04-21 03:58 | 37.01773 | -77.10519 | 35416 ft | 425 kts | 6° |
| 2026-04-21 03:58 | 37.07492 | -77.08593 | 35416 ft | 425 kts | 6° |
| 2026-04-21 03:59 | 37.13213 | -77.06666 | 35441 ft | 426 kts | 7° |
| 2026-04-21 04:00 | 37.21715 | -77.03789 | 35397 ft | 420 kts | 7° |
| 2026-04-21 04:00 | 37.27399 | -77.01874 | 35402 ft | 427 kts | 7° |
| 2026-04-21 04:01 | 37.32171 | -77.00258 | 35401 ft | 427 kts | 7° |
| 2026-04-21 04:01 | 37.37915 | -76.98299 | 35401 ft | 427 kts | 7° |
| 2026-04-21 04:02 | 37.43672 | -76.96348 | 35411 ft | 427 kts | 7° |
| 2026-04-21 04:02 | 37.49248 | -76.93576 | 35412 ft | 436 kts | 19° |
| 2026-04-21 04:03 | 37.54674 | -76.89897 | 35430 ft | 447 kts | 20° |
| 2026-04-21 04:03 | 37.60115 | -76.86183 | 35475 ft | 442 kts | 19° |
| 2026-04-21 04:04 | 37.65531 | -76.82620 | 35468 ft | 436 kts | 19° |
| 2026-04-21 04:04 | 37.70873 | -76.79073 | 35443 ft | 435 kts | 19° |
| 2026-04-21 04:05 | 37.76260 | -76.75466 | 35404 ft | 440 kts | 20° |
| 2026-04-21 04:05 | 37.81624 | -76.71868 | 35360 ft | 438 kts | 20° |
| 2026-04-21 04:06 | 37.86991 | -76.68270 | 35356 ft | 436 kts | 19° |
| 2026-04-21 04:06 | 37.92466 | -76.64792 | 35360 ft | 443 kts | 19° |
| 2026-04-21 04:07 | 37.97976 | -76.61307 | 35409 ft | 441 kts | 19° |
| 2026-04-21 04:07 | 38.03439 | -76.57832 | 35444 ft | 435 kts | 19° |
| 2026-04-21 04:08 | 38.08864 | -76.54382 | 35436 ft | 437 kts | 19° |
| 2026-04-21 04:08 | 38.14286 | -76.50935 | 35417 ft | 433 kts | 19° |
| 2026-04-21 04:09 | 38.19634 | -76.47527 | 35383 ft | 437 kts | 19° |
| 2026-04-21 04:09 | 38.25123 | -76.44023 | 35371 ft | 443 kts | 19° |
| 2026-04-21 04:10 | 38.30494 | -76.40193 | 35412 ft | 445 kts | 28° |
| 2026-04-21 04:10 | 38.35378 | -76.35464 | 35425 ft | 442 kts | 31° |
| 2026-04-21 04:11 | 38.40254 | -76.30585 | 35393 ft | 449 kts | 30° |
| 2026-04-21 04:11 | 38.45246 | -76.25732 | 35409 ft | 453 kts | 30° |
| 2026-04-21 04:12 | 38.50213 | -76.20880 | 35456 ft | 445 kts | 30° |
| 2026-04-21 04:12 | 38.55098 | -76.16067 | 35441 ft | 444 kts | 30° |
| 2026-04-21 04:13 | 38.60032 | -76.11222 | 35393 ft | 449 kts | 31° |
| 2026-04-21 04:13 | 38.62474 | -76.08822 | 35110 ft | 446 kts | 30° |
| 2026-04-21 04:13 | 38.64991 | -76.06438 | 34466 ft | 445 kts | 29° |
| 2026-04-21 04:13 | 38.67471 | -76.04127 | 33685 ft | 448 kts | 29° |
| 2026-04-21 04:14 | 38.69996 | -76.01781 | 33095 ft | 446 kts | 29° |
| 2026-04-21 04:14 | 38.72497 | -75.99449 | 32515 ft | 444 kts | 29° |
| 2026-04-21 04:14 | 38.74982 | -75.97124 | 31944 ft | 441 kts | 29° |
| 2026-04-21 04:14 | 38.77450 | -75.94811 | 31385 ft | 438 kts | 29° |
| 2026-04-21 04:15 | 38.79906 | -75.92506 | 30829 ft | 435 kts | 29° |
| 2026-04-21 04:15 | 38.82337 | -75.90224 | 30283 ft | 431 kts | 29° |
| 2026-04-21 04:15 | 38.84753 | -75.87958 | 29696 ft | 429 kts | 29° |
| 2026-04-21 04:15 | 38.87158 | -75.85702 | 29125 ft | 426 kts | 29° |
| 2026-04-21 04:16 | 38.89543 | -75.83461 | 28572 ft | 424 kts | 29° |
| 2026-04-21 04:16 | 38.91920 | -75.81223 | 28018 ft | 421 kts | 29° |
| 2026-04-21 04:16 | 38.94246 | -75.79031 | 27468 ft | 418 kts | 29° |
| 2026-04-21 04:16 | 38.96583 | -75.76826 | 27081 ft | 411 kts | 29° |
| 2026-04-21 04:17 | 38.98857 | -75.74673 | 26830 ft | 402 kts | 29° |
| 2026-04-21 04:17 | 39.01081 | -75.72566 | 26582 ft | 392 kts | 29° |
| 2026-04-21 04:17 | 39.03259 | -75.70505 | 26333 ft | 384 kts | 29° |
| 2026-04-21 04:17 | 39.05396 | -75.68483 | 26087 ft | 380 kts | 29° |
| 2026-04-21 04:18 | 39.07522 | -75.66474 | 25840 ft | 379 kts | 29° |
| 2026-04-21 04:18 | 39.09617 | -75.64491 | 25595 ft | 377 kts | 30° |
| 2026-04-21 04:18 | 39.11728 | -75.62489 | 25347 ft | 376 kts | 30° |
| 2026-04-21 04:18 | 39.13830 | -75.60490 | 25099 ft | 376 kts | 30° |
| 2026-04-21 04:19 | 39.15935 | -75.58487 | 24851 ft | 375 kts | 30° |
| 2026-04-21 04:19 | 39.18036 | -75.56488 | 24602 ft | 373 kts | 30° |
| 2026-04-21 04:19 | 39.20114 | -75.54509 | 24403 ft | 371 kts | 30° |
| 2026-04-21 04:19 | 39.22193 | -75.52530 | 24403 ft | 372 kts | 30° |
| 2026-04-21 04:20 | 39.24304 | -75.50585 | 24389 ft | 372 kts | 28° |
| 2026-04-21 04:20 | 39.26407 | -75.48713 | 24106 ft | 372 kts | 28° |
| 2026-04-21 04:20 | 39.28549 | -75.46824 | 23458 ft | 374 kts | 28° |
| 2026-04-21 04:20 | 39.30729 | -75.44909 | 22551 ft | 384 kts | 28° |
| 2026-04-21 04:21 | 39.32946 | -75.42952 | 21891 ft | 386 kts | 29° |
| 2026-04-21 04:21 | 39.35137 | -75.40996 | 21567 ft | 378 kts | 29° |
| 2026-04-21 04:21 | 39.37273 | -75.39079 | 21317 ft | 368 kts | 29° |
| 2026-04-21 04:21 | 39.39350 | -75.37224 | 21068 ft | 359 kts | 29° |
| 2026-04-21 04:22 | 39.41387 | -75.35413 | 20818 ft | 351 kts | 29° |
| 2026-04-21 04:22 | 39.43388 | -75.33636 | 20572 ft | 348 kts | 29° |
| 2026-04-21 04:22 | 39.45384 | -75.31866 | 20324 ft | 347 kts | 29° |
| 2026-04-21 04:22 | 39.47374 | -75.30094 | 20076 ft | 348 kts | 29° |
| 2026-04-21 04:23 | 39.49343 | -75.28335 | 19828 ft | 346 kts | 29° |
| 2026-04-21 04:23 | 39.51314 | -75.26548 | 19582 ft | 346 kts | 30° |
| 2026-04-21 04:23 | 39.53262 | -75.24739 | 19331 ft | 345 kts | 31° |
| 2026-04-21 04:23 | 39.55200 | -75.22919 | 19082 ft | 343 kts | 31° |
| 2026-04-21 04:24 | 39.57126 | -75.21104 | 18831 ft | 342 kts | 31° |
| 2026-04-21 04:24 | 39.59043 | -75.19301 | 18581 ft | 337 kts | 31° |
| 2026-04-21 04:24 | 39.60927 | -75.17533 | 18336 ft | 333 kts | 31° |
| 2026-04-21 04:24 | 39.62794 | -75.15785 | 18063 ft | 328 kts | 31° |
| 2026-04-21 04:25 | 39.64635 | -75.14061 | 17651 ft | 327 kts | 31° |
| 2026-04-21 04:25 | 39.66481 | -75.12331 | 17237 ft | 327 kts | 31° |
| 2026-04-21 04:25 | 39.68338 | -75.10633 | 16947 ft | 324 kts | 29° |
| 2026-04-21 04:25 | 39.70205 | -75.09013 | 16589 ft | 322 kts | 28° |
| 2026-04-21 04:26 | 39.72086 | -75.07403 | 16111 ft | 324 kts | 28° |
| 2026-04-21 04:26 | 39.73981 | -75.05787 | 15720 ft | 326 kts | 29° |
| 2026-04-21 04:26 | 39.75864 | -75.04170 | 15448 ft | 324 kts | 29° |
| 2026-04-21 04:26 | 39.77714 | -75.02575 | 15183 ft | 322 kts | 29° |
| 2026-04-21 04:27 | 39.79571 | -75.00975 | 14918 ft | 319 kts | 29° |
| 2026-04-21 04:27 | 39.81417 | -74.99385 | 14647 ft | 318 kts | 29° |
| 2026-04-21 04:27 | 39.83279 | -74.97779 | 14380 ft | 316 kts | 29° |
| 2026-04-21 04:27 | 39.85076 | -74.96219 | 14123 ft | 314 kts | 30° |
| 2026-04-21 04:28 | 39.86877 | -74.94603 | 13863 ft | 312 kts | 31° |
| 2026-04-21 04:28 | 39.88645 | -74.92997 | 13608 ft | 310 kts | 31° |
| 2026-04-21 04:28 | 39.90412 | -74.91388 | 13348 ft | 308 kts | 31° |
| 2026-04-21 04:28 | 39.92139 | -74.89758 | 13091 ft | 308 kts | 36° |
| 2026-04-21 04:29 | 39.93676 | -74.87808 | 12833 ft | 308 kts | 43° |
| 2026-04-21 04:29 | 39.95117 | -74.85741 | 12589 ft | 307 kts | 45° |
| 2026-04-21 04:29 | 39.96520 | -74.83657 | 12341 ft | 305 kts | 45° |
| 2026-04-21 04:29 | 39.97910 | -74.81608 | 12093 ft | 303 kts | 45° |
| 2026-04-21 04:30 | 39.99321 | -74.79572 | 11842 ft | 301 kts | 45° |
| 2026-04-21 04:30 | 40.00746 | -74.77548 | 11593 ft | 302 kts | 44° |
| 2026-04-21 04:30 | 40.02172 | -74.75523 | 11341 ft | 301 kts | 45° |
| 2026-04-21 04:30 | 40.03583 | -74.73508 | 11092 ft | 301 kts | 45° |
| 2026-04-21 04:31 | 40.04971 | -74.71513 | 10850 ft | 301 kts | 45° |
| 2026-04-21 04:31 | 40.06379 | -74.69486 | 10582 ft | 300 kts | 45° |
| 2026-04-21 04:31 | 40.07774 | -74.67481 | 10312 ft | 298 kts | 45° |
| 2026-04-21 04:31 | 40.09172 | -74.65472 | 10054 ft | 296 kts | 45° |
| 2026-04-21 04:32 | 40.10543 | -74.63498 | 10001 ft | 296 kts | 46° |
| 2026-04-21 04:32 | 40.11944 | -74.61482 | 10005 ft | 297 kts | 46° |
| 2026-04-21 04:32 | 40.13332 | -74.59486 | 10003 ft | 297 kts | 45° |
| 2026-04-21 04:32 | 40.14724 | -74.57482 | 10002 ft | 297 kts | 46° |
| 2026-04-21 04:33 | 40.16118 | -74.55469 | 10006 ft | 297 kts | 46° |
| 2026-04-21 04:33 | 40.17481 | -74.53498 | 10005 ft | 297 kts | 46° |
| 2026-04-21 04:33 | 40.18878 | -74.51483 | 10005 ft | 297 kts | 46° |
| 2026-04-21 04:33 | 40.20272 | -74.49494 | 10007 ft | 297 kts | 44° |
| 2026-04-21 04:34 | 40.21735 | -74.47588 | 10009 ft | 296 kts | 41° |
| 2026-04-21 04:34 | 40.23228 | -74.45719 | 10013 ft | 298 kts | 42° |
| 2026-04-21 04:34 | 40.24734 | -74.43852 | 10018 ft | 298 kts | 42° |
| 2026-04-21 04:34 | 40.26234 | -74.41972 | 10017 ft | 298 kts | 42° |
| 2026-04-21 04:35 | 40.27710 | -74.40097 | 9929 ft | 293 kts | 42° |
| 2026-04-21 04:35 | 40.29170 | -74.38239 | 9526 ft | 295 kts | 42° |
| 2026-04-21 04:35 | 40.30661 | -74.36356 | 9101 ft | 298 kts | 41° |
| 2026-04-21 04:35 | 40.32141 | -74.34487 | 8885 ft | 292 kts | 41° |
| 2026-04-21 04:36 | 40.33609 | -74.32632 | 8532 ft | 292 kts | 41° |
| 2026-04-21 04:36 | 40.35055 | -74.30795 | 8270 ft | 288 kts | 41° |
| 2026-04-21 04:36 | 40.36477 | -74.28988 | 7985 ft | 286 kts | 41° |
| 2026-04-21 04:36 | 40.37933 | -74.27244 | 7765 ft | 280 kts | 36° |
| 2026-04-21 04:37 | 40.39443 | -74.25659 | 7639 ft | 279 kts | 34° |
| 2026-04-21 04:37 | 40.40938 | -74.24127 | 7516 ft | 277 kts | 34° |
| 2026-04-21 04:37 | 40.42473 | -74.22514 | 7389 ft | 276 kts | 35° |
| 2026-04-21 04:37 | 40.43960 | -74.20919 | 7257 ft | 276 kts | 36° |
| 2026-04-21 04:38 | 40.45443 | -74.19331 | 7029 ft | 274 kts | 35° |
| 2026-04-21 04:38 | 40.46923 | -74.17763 | 6962 ft | 272 kts | 35° |
| 2026-04-21 04:38 | 40.48418 | -74.16182 | 6635 ft | 273 kts | 35° |
| 2026-04-21 04:38 | 40.49910 | -74.14597 | 6313 ft | 271 kts | 35° |
| 2026-04-21 04:39 | 40.51370 | -74.13039 | 5990 ft | 269 kts | 36° |
| 2026-04-21 04:39 | 40.52808 | -74.11502 | 5641 ft | 264 kts | 36° |
| 2026-04-21 04:39 | 40.54236 | -74.09982 | 5167 ft | 263 kts | 36° |
| 2026-04-21 04:39 | 40.55644 | -74.08486 | 4729 ft | 259 kts | 36° |
| 2026-04-21 04:40 | 40.57021 | -74.07022 | 4239 ft | 256 kts | 36° |
| 2026-04-21 04:40 | 40.57952 | -74.06027 | 3905 ft | 255 kts | 36° |
| 2026-04-21 04:40 | 40.59754 | -74.04096 | 3281 ft | 250 kts | 36° |
| 2026-04-21 04:40 | 40.61095 | -74.02666 | 3023 ft | 244 kts | 35° |
| 2026-04-21 04:41 | 40.62374 | -74.01296 | 2996 ft | 230 kts | 35° |
| 2026-04-21 04:41 | 40.63578 | -74.00005 | 2996 ft | 219 kts | 35° |
| 2026-04-21 04:41 | 40.64742 | -73.98762 | 2996 ft | 211 kts | 34° |
| 2026-04-21 04:41 | 40.65849 | -73.97576 | 2996 ft | 200 kts | 34° |
| 2026-04-21 04:42 | 40.66569 | -73.96839 | 2996 ft | 195 kts | 30° |
| 2026-04-21 04:42 | 40.67690 | -73.95900 | 2920 ft | 185 kts | 27° |
| 2026-04-21 04:42 | 40.68744 | -73.95042 | 2870 ft | 169 kts | 27° |
| 2026-04-21 04:42 | 40.69928 | -73.93882 | 2814 ft | 155 kts | 37° |
| 2026-04-21 04:43 | 40.70433 | -73.93187 | 2669 ft | 155 kts | 41° |
| 2026-04-21 04:43 | 40.71150 | -73.92125 | 2444 ft | 154 kts | 41° |
| 2026-04-21 04:43 | 40.71833 | -73.91038 | 2220 ft | 156 kts | 52° |
| 2026-04-21 04:43 | 40.72184 | -73.89697 | 2004 ft | 161 kts | 72° |
| 2026-04-21 04:44 | 40.72384 | -73.88231 | 1781 ft | 158 kts | 73° |
| 2026-04-21 04:44 | 40.72602 | -73.86843 | 1584 ft | 154 kts | 71° |
| 2026-04-21 04:44 | 40.72833 | -73.85509 | 1359 ft | 145 kts | 71° |
| 2026-04-21 04:44 | 40.73186 | -73.84325 | 1138 ft | 134 kts | 46° |
| 2026-04-21 04:45 | 40.73906 | -73.83612 | 962 ft | 128 kts | 26° |
| 2026-04-21 04:45 | 40.74770 | -73.83375 | 698 ft | 128 kts | 359° |
| 2026-04-21 04:45 | 40.75600 | -73.83735 | 658 ft | 129 kts | 336° |
| 2026-04-21 04:45 | 40.76421 | -73.84332 | 469 ft | 136 kts | 330° |
| 2026-04-21 04:46 | 40.76999 | -73.85321 | 184 ft | 138 kts | 303° |
| 2026-04-21 04:46 | 40.77506 | -73.86337 | 46 ft | 124 kts | 303° |
| 2026-04-21 04:46 | 40.77912 | -73.87182 | 35 ft | 86 kts | 301° |
| 2026-04-21 04:46 | 40.78110 | -73.87599 | 35 ft | 28 kts | 301° |
| 2026-04-21 04:47 | 40.78173 | -73.87735 | 35 ft | 7 kts | 301° |
| 2026-04-21 04:47 | 40.78195 | -73.87783 | 35 ft | 6 kts | 301° |
| 2026-04-21 04:47 | 40.78195 | -73.87831 | 35 ft | 5 kts | 231° |
| 2026-04-21 04:47 | 40.78159 | -73.87858 | 35 ft | 6 kts | 204° |
| 2026-04-21 04:48 | 40.78125 | -73.87860 | 35 ft | 0 kts | 174° |
| 2026-04-21 04:49 | 40.78116 | -73.87861 | 35 ft | 4 kts | 183° |
| 2026-04-21 04:49 | 40.78063 | -73.87857 | 35 ft | 10 kts | 171° |
| 2026-04-21 04:49 | 40.77999 | -73.87816 | 35 ft | 11 kts | 129° |
| 2026-04-21 04:49 | 40.77952 | -73.87724 | 35 ft | 13 kts | 122° |
| 2026-04-21 04:50 | 40.77907 | -73.87627 | 35 ft | 9 kts | 122° |
| 2026-04-21 04:50 | 40.77874 | -73.87552 | 35 ft | 10 kts | 120° |
| 2026-04-21 04:50 | 40.77836 | -73.87467 | 35 ft | 11 kts | 121° |
| 2026-04-21 04:50 | 40.77795 | -73.87384 | 35 ft | 10 kts | 128° |
| 2026-04-21 04:51 | 40.77741 | -73.87354 | 35 ft | 7 kts | 161° |
| 2026-04-21 04:51 | 40.77720 | -73.87315 | 35 ft | 4 kts | 85° |
| 2026-04-21 04:51 | 40.77721 | -73.87274 | 35 ft | 4 kts | 91° |
| 2026-04-21 04:51 | 40.77716 | -73.87236 | 35 ft | 3 kts | 127° |
| 2026-04-21 04:52 | 40.77693 | -73.87218 | 35 ft | 4 kts | 162° |
| 2026-04-21 04:52 | 40.77667 | -73.87215 | 35 ft | 4 kts | 178° |
| 2026-04-21 04:52 | 40.77641 | -73.87216 | 35 ft | 4 kts | 182° |
| 2026-04-21 04:52 | 40.77614 | -73.87218 | 35 ft | 4 kts | 185° |
| 2026-04-21 04:53 | 40.77591 | -73.87231 | 35 ft | 4 kts | 220° |
| 2026-04-21 04:53 | 40.77575 | -73.87257 | 35 ft | 4 kts | 236° |
| 2026-04-21 04:53 | 40.77572 | -73.87263 | 35 ft | 0 kts | 234° |